createdAt,value
2023-02-03T00:00:09.747Z,1007.09
2023-02-03T00:00:20.001Z,1007.08
2023-02-03T00:00:30.276Z,1007.06
2023-02-03T00:00:40.564Z,1007.08
2023-02-03T00:00:50.876Z,1007.08
2023-02-03T00:01:01.130Z,1007.07
2023-02-03T00:01:11.372Z,1007.07
2023-02-03T00:01:21.652Z,1007.07
2023-02-03T00:01:31.943Z,1007.06
2023-02-03T00:01:42.263Z,1007.02
2023-02-03T00:01:52.521Z,1007.03
2023-02-03T00:02:02.938Z,1006.99
2023-02-03T00:02:13.283Z,1007.02
2023-02-03T00:02:23.559Z,1006.97
2023-02-03T00:02:33.833Z,1006.97
2023-02-03T00:02:44.144Z,1006.97
2023-02-03T00:02:54.414Z,1006.98
2023-02-03T00:03:04.762Z,1006.98
2023-02-03T00:03:15.070Z,1006.99
2023-02-03T00:03:25.358Z,1006.99
2023-02-03T00:03:35.611Z,1007.00
2023-02-03T00:03:45.885Z,1007.00
2023-02-03T00:03:56.166Z,1007.03
2023-02-03T00:04:06.451Z,1006.97
2023-02-03T00:04:16.717Z,1006.99
2023-02-03T00:04:27.043Z,1007.00
2023-02-03T00:04:37.281Z,1007.00
2023-02-03T00:04:47.580Z,1006.99
2023-02-03T00:04:57.888Z,1007.02
2023-02-03T00:05:08.130Z,1007.03
2023-02-03T00:05:18.407Z,1007.03
2023-02-03T00:05:28.688Z,1007.01
2023-02-03T00:05:38.952Z,1007.02
2023-02-03T00:05:49.249Z,1007.03
2023-02-03T00:05:59.510Z,1007.04
2023-02-03T00:06:09.791Z,1007.02
2023-02-03T00:06:20.053Z,1007.01
2023-02-03T00:06:30.330Z,1007.00
2023-02-03T00:06:40.612Z,1007.00
2023-02-03T00:06:50.918Z,1006.99
2023-02-03T00:07:01.165Z,1007.01
2023-02-03T00:07:11.436Z,1006.94
2023-02-03T00:07:21.701Z,1006.98
2023-02-03T00:07:31.982Z,1006.97
2023-02-03T00:07:42.242Z,1006.98
2023-02-03T00:07:52.542Z,1006.96
2023-02-03T00:08:02.828Z,1006.97
2023-02-03T00:08:13.950Z,1006.97
2023-02-03T00:08:23.345Z,1006.97
2023-02-03T00:08:33.614Z,1006.97
2023-02-03T00:08:43.894Z,1006.97
2023-02-03T00:08:54.171Z,1006.98
2023-02-03T00:09:04.445Z,1006.99
2023-02-03T00:09:14.716Z,1006.98
2023-02-03T00:09:25.020Z,1006.98
2023-02-03T00:09:35.269Z,1006.98
2023-02-03T00:09:45.568Z,1006.98
2023-02-03T00:09:55.842Z,1006.99
2023-02-03T00:10:06.108Z,1006.95
2023-02-03T00:10:16.393Z,1006.98
2023-02-03T00:10:27.012Z,1006.97
2023-02-03T00:10:37.001Z,1006.97
2023-02-03T00:10:47.307Z,1006.95
2023-02-03T00:10:57.609Z,1006.96
2023-02-03T00:11:07.862Z,1006.96
2023-02-03T00:11:18.117Z,1006.97
2023-02-03T00:11:28.389Z,1006.94
2023-02-03T00:11:38.680Z,1006.95
2023-02-03T00:11:48.954Z,1006.95
2023-02-03T00:11:59.243Z,1006.94
2023-02-03T00:12:09.504Z,1006.92
2023-02-03T00:12:19.761Z,1006.92
2023-02-03T00:12:30.042Z,1006.93
2023-02-03T00:12:40.310Z,1006.94
2023-02-03T00:12:50.580Z,1006.91
2023-02-03T00:13:00.849Z,1006.91
2023-02-03T00:13:11.122Z,1006.92
2023-02-03T00:13:21.418Z,1006.92
2023-02-03T00:13:31.669Z,1006.87
2023-02-03T00:13:41.952Z,1006.89
2023-02-03T00:13:52.243Z,1006.90
2023-02-03T00:14:02.497Z,1006.91
2023-02-03T00:14:12.787Z,1006.91
2023-02-03T00:14:23.060Z,1006.94
2023-02-03T00:14:33.336Z,1006.91
2023-02-03T00:14:43.620Z,1006.92
2023-02-03T00:14:53.889Z,1006.87
2023-02-03T00:15:04.178Z,1006.85
2023-02-03T00:15:14.445Z,1006.89
2023-02-03T00:15:24.701Z,1006.91
2023-02-03T00:15:34.972Z,1006.88
2023-02-03T00:15:45.276Z,1006.89
2023-02-03T00:15:55.559Z,1006.88
2023-02-03T00:16:05.934Z,1006.88
2023-02-03T00:16:16.199Z,1006.88
2023-02-03T00:16:26.519Z,1006.87
2023-02-03T00:16:36.877Z,1006.87
2023-02-03T00:16:47.196Z,1006.84
2023-02-03T00:16:57.453Z,1006.85
2023-02-03T00:17:07.741Z,1006.83
2023-02-03T00:17:18.025Z,1006.81
2023-02-03T00:17:28.287Z,1006.80
2023-02-03T00:17:38.564Z,1006.80
2023-02-03T00:17:48.825Z,1006.80
2023-02-03T00:17:59.100Z,1006.78
2023-02-03T00:18:09.369Z,1006.76
2023-02-03T00:18:19.640Z,1006.76
2023-02-03T00:18:29.917Z,1006.77
2023-02-03T00:18:40.183Z,1006.73
2023-02-03T00:18:50.466Z,1006.72
2023-02-03T00:19:00.744Z,1006.73
2023-02-03T00:19:11.004Z,1006.73
2023-02-03T00:19:21.268Z,1006.71
2023-02-03T00:19:31.569Z,1006.72
2023-02-03T00:19:41.851Z,1006.71
2023-02-03T00:19:52.133Z,1006.71
2023-02-03T00:20:02.406Z,1006.71
2023-02-03T00:20:12.675Z,1006.69
2023-02-03T00:20:22.960Z,1006.70
2023-02-03T00:20:33.225Z,1006.69
2023-02-03T00:20:43.494Z,1006.67
2023-02-03T00:20:53.770Z,1006.68
2023-02-03T00:21:04.041Z,1006.66
2023-02-03T00:21:14.305Z,1006.66
2023-02-03T00:21:24.594Z,1006.66
2023-02-03T00:21:34.891Z,1006.65
2023-02-03T00:21:45.140Z,1006.65
2023-02-03T00:21:55.411Z,1006.65
2023-02-03T00:22:05.683Z,1006.63
2023-02-03T00:22:15.980Z,1006.62
2023-02-03T00:22:26.295Z,1006.60
2023-02-03T00:22:36.560Z,1006.58
2023-02-03T00:22:46.811Z,1006.56
2023-02-03T00:22:57.076Z,1006.57
2023-02-03T00:23:07.357Z,1006.58
2023-02-03T00:23:17.628Z,1006.55
2023-02-03T00:23:27.929Z,1006.57
2023-02-03T00:23:38.178Z,1006.57
2023-02-03T00:23:48.442Z,1006.55
2023-02-03T00:23:58.733Z,1006.49
2023-02-03T00:24:08.992Z,1006.49
2023-02-03T00:24:19.269Z,1006.52
2023-02-03T00:24:29.552Z,1006.51
2023-02-03T00:24:39.841Z,1006.51
2023-02-03T00:24:50.114Z,1006.52
2023-02-03T00:25:00.394Z,1006.51
2023-02-03T00:25:10.674Z,1006.51
2023-02-03T00:25:20.967Z,1006.53
2023-02-03T00:25:31.264Z,1006.51
2023-02-03T00:25:41.495Z,1006.47
2023-02-03T00:25:51.764Z,1006.54
2023-02-03T00:26:02.041Z,1006.51
2023-02-03T00:26:12.317Z,1006.50
2023-02-03T00:26:22.587Z,1006.50
2023-02-03T00:26:32.867Z,1006.51
2023-02-03T00:26:43.158Z,1006.49
2023-02-03T00:26:53.412Z,1006.48
2023-02-03T00:27:03.694Z,1006.45
2023-02-03T00:27:13.962Z,1006.46
2023-02-03T00:27:24.241Z,1006.45
2023-02-03T00:27:34.504Z,1006.44
2023-02-03T00:27:44.834Z,1006.46
2023-02-03T00:27:55.124Z,1006.43
2023-02-03T00:28:05.521Z,1006.45
2023-02-03T00:28:15.660Z,1006.44
2023-02-03T00:28:25.937Z,1006.43
2023-02-03T00:28:36.226Z,1006.43
2023-02-03T00:28:46.502Z,1006.45
2023-02-03T00:28:56.750Z,1006.44
2023-02-03T00:29:07.024Z,1006.40
2023-02-03T00:29:17.294Z,1006.39
2023-02-03T00:29:27.566Z,1006.40
2023-02-03T00:29:37.849Z,1006.39
2023-02-03T00:29:48.125Z,1006.37
2023-02-03T00:29:58.421Z,1006.38
2023-02-03T00:30:08.676Z,1006.35
2023-02-03T00:30:18.965Z,1006.34
2023-02-03T00:30:29.222Z,1006.35
2023-02-03T00:30:39.491Z,1006.35
2023-02-03T00:30:49.775Z,1006.37
2023-02-03T00:31:00.044Z,1006.32
2023-02-03T00:31:10.340Z,1006.31
2023-02-03T00:31:20.700Z,1006.32
2023-02-03T00:31:31.178Z,1006.34
2023-02-03T00:31:41.348Z,1006.31
2023-02-03T00:31:51.757Z,1006.34
2023-02-03T00:32:02.036Z,1006.34
2023-02-03T00:32:12.264Z,1006.34
2023-02-03T00:32:22.476Z,1006.34
2023-02-03T00:32:32.842Z,1006.35
2023-02-03T00:32:43.089Z,1006.33
2023-02-03T00:32:53.371Z,1006.34
2023-02-03T00:33:03.636Z,1006.34
2023-02-03T00:33:13.924Z,1006.32
2023-02-03T00:33:24.211Z,1006.31
2023-02-03T00:33:34.511Z,1006.33
2023-02-03T00:33:44.770Z,1006.29
2023-02-03T00:33:55.074Z,1006.30
2023-02-03T00:34:05.329Z,1006.30
2023-02-03T00:34:15.603Z,1006.32
2023-02-03T00:34:25.866Z,1006.31
2023-02-03T00:34:36.140Z,1006.26
2023-02-03T00:34:46.435Z,1006.25
2023-02-03T00:34:56.705Z,1006.26
2023-02-03T00:35:07.003Z,1006.26
2023-02-03T00:35:17.262Z,1006.24
2023-02-03T00:35:27.573Z,1006.25
2023-02-03T00:35:37.865Z,1006.26
2023-02-03T00:35:48.134Z,1006.23
2023-02-03T00:35:58.413Z,1006.23
2023-02-03T00:36:08.686Z,1006.23
2023-02-03T00:36:18.949Z,1006.25
2023-02-03T00:36:29.222Z,1006.23
2023-02-03T00:36:41.369Z,1006.23
2023-02-03T00:36:49.849Z,1006.22
2023-02-03T00:37:00.121Z,1006.23
2023-02-03T00:37:10.404Z,1006.23
2023-02-03T00:37:20.659Z,1006.23
2023-02-03T00:37:30.929Z,1006.26
2023-02-03T00:37:41.202Z,1006.26
2023-02-03T00:37:51.502Z,1006.24
2023-02-03T00:38:01.750Z,1006.24
2023-02-03T00:38:12.051Z,1006.24
2023-02-03T00:38:22.338Z,1006.26
2023-02-03T00:38:32.598Z,1006.27
2023-02-03T00:38:42.878Z,1006.24
2023-02-03T00:38:53.940Z,1006.25
2023-02-03T00:39:03.581Z,1006.25
2023-02-03T00:39:13.848Z,1006.25
2023-02-03T00:39:24.122Z,1006.27
2023-02-03T00:39:34.397Z,1006.25
2023-02-03T00:39:44.685Z,1006.26
2023-02-03T00:39:54.977Z,1006.25
2023-02-03T00:40:05.246Z,1006.27
2023-02-03T00:40:15.528Z,1006.25
2023-02-03T00:40:26.150Z,1006.27
2023-02-03T00:40:36.114Z,1006.27
2023-02-03T00:40:46.390Z,1006.27
2023-02-03T00:40:56.669Z,1006.27
2023-02-03T00:41:06.932Z,1006.27
2023-02-03T00:41:17.211Z,1006.27
2023-02-03T00:41:27.482Z,1006.27
2023-02-03T00:41:37.751Z,1006.28
2023-02-03T00:41:48.044Z,1006.27
2023-02-03T00:41:58.290Z,1006.23
2023-02-03T00:42:08.572Z,1006.24
2023-02-03T00:42:18.848Z,1006.24
2023-02-03T00:42:29.107Z,1006.24
2023-02-03T00:42:39.382Z,1006.25
2023-02-03T00:42:49.662Z,1006.21
2023-02-03T00:42:59.947Z,1006.24
2023-02-03T00:43:10.218Z,1006.23
2023-02-03T00:43:20.495Z,1006.22
2023-02-03T00:43:30.757Z,1006.21
2023-02-03T00:43:41.028Z,1006.19
2023-02-03T00:43:51.311Z,1006.19
2023-02-03T00:44:01.567Z,1006.20
2023-02-03T00:44:11.869Z,1006.17
2023-02-03T00:44:22.137Z,1006.19
2023-02-03T00:44:32.407Z,1006.18
2023-02-03T00:44:42.690Z,1006.17
2023-02-03T00:44:53.015Z,1006.18
2023-02-03T00:45:03.263Z,1006.17
2023-02-03T00:45:13.529Z,1006.16
2023-02-03T00:45:23.808Z,1006.15
2023-02-03T00:45:34.111Z,1006.15
2023-02-03T00:45:44.426Z,1006.15
2023-02-03T00:45:54.769Z,1006.16
2023-02-03T00:46:05.108Z,1006.16
2023-02-03T00:46:15.443Z,1006.15
2023-02-03T00:46:25.714Z,1006.16
2023-02-03T00:46:36.004Z,1006.15
2023-02-03T00:46:46.264Z,1006.16
2023-02-03T00:46:56.530Z,1006.15
2023-02-03T00:47:06.810Z,1006.18
2023-02-03T00:47:17.092Z,1006.17
2023-02-03T00:47:27.358Z,1006.19
2023-02-03T00:47:37.644Z,1006.19
2023-02-03T00:47:47.924Z,1006.20
2023-02-03T00:47:58.171Z,1006.21
2023-02-03T00:48:08.951Z,1006.17
2023-02-03T00:48:18.800Z,1006.19
2023-02-03T00:48:29.119Z,1006.20
2023-02-03T00:48:39.366Z,1006.19
2023-02-03T00:48:49.636Z,1006.19
2023-02-03T00:48:59.904Z,1006.18
2023-02-03T00:49:10.169Z,1006.20
2023-02-03T00:49:20.440Z,1006.21
2023-02-03T00:49:30.717Z,1006.18
2023-02-03T00:49:40.991Z,1006.17
2023-02-03T00:49:51.277Z,1006.16
2023-02-03T00:50:01.593Z,1006.16
2023-02-03T00:50:11.841Z,1006.18
2023-02-03T00:50:22.117Z,1006.20
2023-02-03T00:50:32.383Z,1006.22
2023-02-03T00:50:42.663Z,1006.16
2023-02-03T00:50:52.927Z,1006.19
2023-02-03T00:51:03.199Z,1006.17
2023-02-03T00:51:13.480Z,1006.19
2023-02-03T00:51:23.753Z,1006.19
2023-02-03T00:51:34.021Z,1006.20
2023-02-03T00:51:44.305Z,1006.19
2023-02-03T00:51:54.586Z,1006.16
2023-02-03T00:52:04.856Z,1006.17
2023-02-03T00:52:15.119Z,1006.19
2023-02-03T00:52:25.392Z,1006.18
2023-02-03T00:52:35.736Z,1006.15
2023-02-03T00:52:45.980Z,1006.14
2023-02-03T00:52:56.248Z,1006.16
2023-02-03T00:53:06.519Z,1006.15
2023-02-03T00:53:16.791Z,1006.14
2023-02-03T00:53:27.058Z,1006.13
2023-02-03T00:53:37.337Z,1006.11
2023-02-03T00:53:47.629Z,1006.10
2023-02-03T00:53:57.905Z,1006.10
2023-02-03T00:54:08.176Z,1006.12
2023-02-03T00:54:18.448Z,1006.07
2023-02-03T00:54:28.733Z,1006.10
2023-02-03T00:54:38.985Z,1006.05
2023-02-03T00:54:49.273Z,1006.02
2023-02-03T00:54:59.550Z,1006.07
2023-02-03T00:55:09.843Z,1006.05
2023-02-03T00:55:20.104Z,1006.06
2023-02-03T00:55:30.432Z,1006.05
2023-02-03T00:55:40.711Z,1006.06
2023-02-03T00:55:51.004Z,1006.07
2023-02-03T00:56:01.283Z,1006.09
2023-02-03T00:56:11.557Z,1006.08
2023-02-03T00:56:21.830Z,1006.07
2023-02-03T00:56:32.089Z,1006.09
2023-02-03T00:56:42.411Z,1006.08
2023-02-03T00:56:52.687Z,1006.07
2023-02-03T00:57:02.937Z,1006.09
2023-02-03T00:57:13.207Z,1006.08
2023-02-03T00:57:23.482Z,1006.08
2023-02-03T00:57:33.747Z,1006.09
2023-02-03T00:57:44.019Z,1006.09
2023-02-03T00:57:54.292Z,1006.09
2023-02-03T00:58:04.566Z,1006.08
2023-02-03T00:58:14.871Z,1006.09
2023-02-03T00:58:25.125Z,1006.08
2023-02-03T00:58:35.446Z,1006.08
2023-02-03T00:58:45.689Z,1006.08
2023-02-03T00:58:55.965Z,1006.07
2023-02-03T00:59:06.249Z,1006.09
2023-02-03T00:59:16.527Z,1006.08
2023-02-03T00:59:26.820Z,1006.08
2023-02-03T00:59:37.079Z,1006.08
2023-02-03T00:59:47.363Z,1006.10
2023-02-03T00:59:57.647Z,1006.07
2023-02-03T01:00:07.912Z,1006.07
2023-02-03T01:00:18.201Z,1006.08
2023-02-03T01:00:28.791Z,1006.06
2023-02-03T01:00:38.683Z,1006.09
2023-02-03T01:00:48.984Z,1006.09
2023-02-03T01:00:59.293Z,1006.09
2023-02-03T01:01:09.615Z,1006.10
2023-02-03T01:01:19.910Z,1006.08
2023-02-03T01:01:30.259Z,1006.08
2023-02-03T01:01:40.556Z,1006.07
2023-02-03T01:01:50.854Z,1006.07
2023-02-03T01:02:01.180Z,1006.08
2023-02-03T01:02:11.547Z,1006.08
2023-02-03T01:02:21.849Z,1006.08
2023-02-03T01:02:32.190Z,1006.10
2023-02-03T01:02:42.478Z,1006.11
2023-02-03T01:02:52.728Z,1006.10
2023-02-03T01:03:02.993Z,1006.09
2023-02-03T01:03:13.266Z,1006.08
2023-02-03T01:03:23.547Z,1006.12
2023-02-03T01:03:33.817Z,1006.11
2023-02-03T01:03:44.091Z,1006.08
2023-02-03T01:03:54.360Z,1006.09
2023-02-03T01:04:04.637Z,1006.07
2023-02-03T01:04:14.901Z,1006.08
2023-02-03T01:04:25.167Z,1006.10
2023-02-03T01:04:35.449Z,1006.10
2023-02-03T01:04:45.736Z,1006.10
2023-02-03T01:04:56.006Z,1006.11
2023-02-03T01:05:06.279Z,1006.11
2023-02-03T01:05:16.549Z,1006.09
2023-02-03T01:05:26.829Z,1006.09
2023-02-03T01:05:37.091Z,1006.09
2023-02-03T01:05:47.368Z,1006.08
2023-02-03T01:05:57.635Z,1006.08
2023-02-03T01:06:07.920Z,1006.07
2023-02-03T01:06:18.203Z,1006.08
2023-02-03T01:06:28.456Z,1006.06
2023-02-03T01:06:38.746Z,1006.06
2023-02-03T01:06:49.017Z,1006.04
2023-02-03T01:06:59.308Z,1006.03
2023-02-03T01:07:09.600Z,1006.03
2023-02-03T01:07:19.862Z,1005.99
2023-02-03T01:07:30.134Z,1006.01
2023-02-03T01:07:40.416Z,1006.01
2023-02-03T01:07:50.675Z,1005.97
2023-02-03T01:08:00.960Z,1005.97
2023-02-03T01:08:11.264Z,1005.95
2023-02-03T01:08:21.512Z,1005.97
2023-02-03T01:08:31.785Z,1005.97
2023-02-03T01:08:42.065Z,1005.95
2023-02-03T01:08:52.328Z,1005.97
2023-02-03T01:09:02.607Z,1005.94
2023-02-03T01:09:12.885Z,1005.93
2023-02-03T01:09:23.151Z,1005.92
2023-02-03T01:09:33.424Z,1005.93
2023-02-03T01:09:43.701Z,1005.90
2023-02-03T01:09:53.978Z,1005.91
2023-02-03T01:10:04.270Z,1005.90
2023-02-03T01:10:14.518Z,1005.92
2023-02-03T01:10:25.168Z,1005.92
2023-02-03T01:10:35.159Z,1005.90
2023-02-03T01:10:45.484Z,1005.91
2023-02-03T01:10:55.783Z,1005.92
2023-02-03T01:11:06.012Z,1005.90
2023-02-03T01:11:16.277Z,1005.88
2023-02-03T01:11:26.548Z,1005.91
2023-02-03T01:11:36.828Z,1005.92
2023-02-03T01:11:47.101Z,1005.92
2023-02-03T01:11:57.431Z,1005.93
2023-02-03T01:12:07.666Z,1005.95
2023-02-03T01:12:17.944Z,1005.96
2023-02-03T01:12:28.213Z,1005.93
2023-02-03T01:12:38.494Z,1005.93
2023-02-03T01:12:48.765Z,1005.94
2023-02-03T01:12:59.035Z,1005.96
2023-02-03T01:13:09.355Z,1005.94
2023-02-03T01:13:19.600Z,1005.92
2023-02-03T01:13:29.870Z,1005.97
2023-02-03T01:13:40.175Z,1005.94
2023-02-03T01:13:50.454Z,1005.95
2023-02-03T01:14:00.748Z,1005.95
2023-02-03T01:14:11.010Z,1005.96
2023-02-03T01:14:21.256Z,1005.94
2023-02-03T01:14:31.528Z,1005.96
2023-02-03T01:14:41.809Z,1005.95
2023-02-03T01:14:52.081Z,1005.96
2023-02-03T01:15:02.362Z,1005.94
2023-02-03T01:15:12.614Z,1005.95
2023-02-03T01:15:22.915Z,1005.95
2023-02-03T01:15:33.217Z,1005.96
2023-02-03T01:15:43.464Z,1005.91
2023-02-03T01:15:53.742Z,1005.92
2023-02-03T01:16:04.029Z,1005.93
2023-02-03T01:16:14.329Z,1005.87
2023-02-03T01:16:25.649Z,1005.82
2023-02-03T01:16:35.059Z,1005.88
2023-02-03T01:16:45.351Z,1005.87
2023-02-03T01:16:55.675Z,1005.91
2023-02-03T01:17:06.033Z,1005.90
2023-02-03T01:17:16.299Z,1005.91
2023-02-03T01:17:26.570Z,1005.91
2023-02-03T01:17:36.865Z,1005.91
2023-02-03T01:17:47.120Z,1005.89
2023-02-03T01:17:57.396Z,1005.88
2023-02-03T01:18:07.666Z,1005.91
2023-02-03T01:18:17.943Z,1005.92
2023-02-03T01:18:28.201Z,1005.91
2023-02-03T01:18:38.480Z,1005.93
2023-02-03T01:18:48.749Z,1005.93
2023-02-03T01:18:59.022Z,1005.92
2023-02-03T01:19:09.383Z,1005.94
2023-02-03T01:19:19.648Z,1005.93
2023-02-03T01:19:29.951Z,1005.93
2023-02-03T01:19:40.208Z,1005.94
2023-02-03T01:19:50.482Z,1005.95
2023-02-03T01:20:00.784Z,1005.92
2023-02-03T01:20:11.037Z,1005.93
2023-02-03T01:20:21.306Z,1005.93
2023-02-03T01:20:31.598Z,1005.93
2023-02-03T01:20:41.861Z,1005.92
2023-02-03T01:20:52.131Z,1005.91
2023-02-03T01:21:02.401Z,1005.95
2023-02-03T01:21:12.673Z,1005.94
2023-02-03T01:21:22.939Z,1005.95
2023-02-03T01:21:33.248Z,1005.94
2023-02-03T01:21:43.508Z,1005.93
2023-02-03T01:21:53.784Z,1005.91
2023-02-03T01:22:04.067Z,1005.92
2023-02-03T01:22:14.376Z,1005.94
2023-02-03T01:22:24.625Z,1005.93
2023-02-03T01:22:34.891Z,1005.94
2023-02-03T01:22:45.159Z,1005.96
2023-02-03T01:22:55.444Z,1005.97
2023-02-03T01:23:05.699Z,1005.97
2023-02-03T01:23:15.974Z,1005.95
2023-02-03T01:23:26.247Z,1005.94
2023-02-03T01:23:36.512Z,1005.94
2023-02-03T01:23:46.788Z,1005.96
2023-02-03T01:23:57.064Z,1005.97
2023-02-03T01:24:07.356Z,1005.97
2023-02-03T01:24:17.610Z,1005.99
2023-02-03T01:24:27.896Z,1005.99
2023-02-03T01:24:38.164Z,1006.00
2023-02-03T01:24:48.443Z,1005.97
2023-02-03T01:24:58.726Z,1005.94
2023-02-03T01:25:08.981Z,1005.98
2023-02-03T01:25:19.255Z,1005.95
2023-02-03T01:25:29.536Z,1005.99
2023-02-03T01:25:39.802Z,1006.01
2023-02-03T01:25:50.075Z,1006.01
2023-02-03T01:26:00.340Z,1006.02
2023-02-03T01:26:10.618Z,1005.99
2023-02-03T01:26:20.884Z,1005.96
2023-02-03T01:26:31.213Z,1005.98
2023-02-03T01:26:41.458Z,1005.99
2023-02-03T01:26:51.767Z,1006.01
2023-02-03T01:27:02.008Z,1006.01
2023-02-03T01:27:12.291Z,1006.01
2023-02-03T01:27:22.582Z,1006.01
2023-02-03T01:27:32.855Z,1006.00
2023-02-03T01:27:43.158Z,1006.00
2023-02-03T01:27:53.406Z,1006.01
2023-02-03T01:28:03.698Z,1006.02
2023-02-03T01:28:14.051Z,1006.02
2023-02-03T01:28:24.285Z,1006.04
2023-02-03T01:28:34.565Z,1006.04
2023-02-03T01:28:44.842Z,1006.02
2023-02-03T01:28:55.109Z,1006.01
2023-02-03T01:29:05.976Z,1006.00
2023-02-03T01:29:15.804Z,1006.03
2023-02-03T01:29:26.074Z,1006.01
2023-02-03T01:29:36.376Z,1006.00
2023-02-03T01:29:46.693Z,1006.04
2023-02-03T01:29:56.940Z,1005.99
2023-02-03T01:30:07.215Z,1006.00
2023-02-03T01:30:17.477Z,1005.97
2023-02-03T01:30:28.219Z,1005.97
2023-02-03T01:30:38.099Z,1005.96
2023-02-03T01:30:48.516Z,1005.98
2023-02-03T01:30:58.816Z,1005.98
2023-02-03T01:31:09.047Z,1005.96
2023-02-03T01:31:19.259Z,1005.97
2023-02-03T01:31:29.620Z,1005.97
2023-02-03T01:31:40.037Z,1005.95
2023-02-03T01:31:50.103Z,1005.94
2023-02-03T01:32:00.630Z,1005.89
2023-02-03T01:32:10.698Z,1005.90
2023-02-03T01:32:20.974Z,1005.90
2023-02-03T01:32:31.253Z,1005.94
2023-02-03T01:32:41.522Z,1005.94
2023-02-03T01:32:51.818Z,1005.93
2023-02-03T01:33:02.073Z,1005.97
2023-02-03T01:33:12.349Z,1005.95
2023-02-03T01:33:22.615Z,1005.97
2023-02-03T01:33:32.889Z,1005.95
2023-02-03T01:33:43.157Z,1005.96
2023-02-03T01:33:53.444Z,1005.96
2023-02-03T01:34:03.715Z,1005.97
2023-02-03T01:34:13.988Z,1005.97
2023-02-03T01:34:24.272Z,1005.98
2023-02-03T01:34:34.546Z,1005.98
2023-02-03T01:34:44.847Z,1005.99
2023-02-03T01:34:55.097Z,1005.97
2023-02-03T01:35:05.361Z,1005.99
2023-02-03T01:35:15.662Z,1005.99
2023-02-03T01:35:25.901Z,1006.00
2023-02-03T01:35:36.173Z,1006.00
2023-02-03T01:35:46.470Z,1006.01
2023-02-03T01:35:56.740Z,1006.03
2023-02-03T01:36:07.006Z,1006.03
2023-02-03T01:36:17.282Z,1006.02
2023-02-03T01:36:27.570Z,1006.05
2023-02-03T01:36:37.814Z,1006.07
2023-02-03T01:36:48.156Z,1006.08
2023-02-03T01:36:58.396Z,1006.08
2023-02-03T01:37:08.675Z,1006.10
2023-02-03T01:37:18.943Z,1006.07
2023-02-03T01:37:29.226Z,1006.11
2023-02-03T01:37:39.523Z,1006.11
2023-02-03T01:37:49.817Z,1006.13
2023-02-03T01:38:00.097Z,1006.14
2023-02-03T01:38:10.370Z,1006.14
2023-02-03T01:38:20.614Z,1006.11
2023-02-03T01:38:30.891Z,1006.12
2023-02-03T01:38:41.161Z,1006.14
2023-02-03T01:38:51.430Z,1006.14
2023-02-03T01:39:01.720Z,1006.11
2023-02-03T01:39:11.965Z,1006.13
2023-02-03T01:39:22.231Z,1006.13
2023-02-03T01:39:32.502Z,1006.14
2023-02-03T01:39:42.788Z,1006.13
2023-02-03T01:39:53.078Z,1006.17
2023-02-03T01:40:03.347Z,1006.11
2023-02-03T01:40:13.612Z,1006.14
2023-02-03T01:40:23.941Z,1006.17
2023-02-03T01:40:34.246Z,1006.14
2023-02-03T01:40:44.505Z,1006.18
2023-02-03T01:40:54.780Z,1006.18
2023-02-03T01:41:05.043Z,1006.22
2023-02-03T01:41:15.325Z,1006.20
2023-02-03T01:41:25.644Z,1006.24
2023-02-03T01:41:35.867Z,1006.24
2023-02-03T01:41:46.158Z,1006.28
2023-02-03T01:41:56.453Z,1006.29
2023-02-03T01:42:06.693Z,1006.29
2023-02-03T01:42:16.968Z,1006.29
2023-02-03T01:42:27.235Z,1006.28
2023-02-03T01:42:37.543Z,1006.31
2023-02-03T01:42:47.850Z,1006.33
2023-02-03T01:42:58.088Z,1006.33
2023-02-03T01:43:08.470Z,1006.36
2023-02-03T01:43:18.698Z,1006.35
2023-02-03T01:43:29.001Z,1006.34
2023-02-03T01:43:39.292Z,1006.36
2023-02-03T01:43:49.525Z,1006.37
2023-02-03T01:43:59.816Z,1006.38
2023-02-03T01:44:10.104Z,1006.41
2023-02-03T01:44:20.347Z,1006.41
2023-02-03T01:44:30.623Z,1006.42
2023-02-03T01:44:40.902Z,1006.40
2023-02-03T01:44:51.196Z,1006.44
2023-02-03T01:45:01.481Z,1006.40
2023-02-03T01:45:13.466Z,1006.41
2023-02-03T01:45:22.126Z,1006.41
2023-02-03T01:45:32.433Z,1006.42
2023-02-03T01:45:42.703Z,1006.40
2023-02-03T01:45:52.990Z,1006.40
2023-02-03T01:46:03.270Z,1006.41
2023-02-03T01:46:14.501Z,1006.41
2023-02-03T01:46:23.977Z,1006.40
2023-02-03T01:46:34.264Z,1006.42
2023-02-03T01:46:44.526Z,1006.41
2023-02-03T01:46:54.792Z,1006.41
2023-02-03T01:47:05.077Z,1006.42
2023-02-03T01:47:15.349Z,1006.42
2023-02-03T01:47:25.626Z,1006.41
2023-02-03T01:47:35.893Z,1006.40
2023-02-03T01:47:46.203Z,1006.40
2023-02-03T01:47:56.450Z,1006.41
2023-02-03T01:48:06.724Z,1006.42
2023-02-03T01:48:16.998Z,1006.40
2023-02-03T01:48:27.285Z,1006.43
2023-02-03T01:48:37.575Z,1006.35
2023-02-03T01:48:47.826Z,1006.37
2023-02-03T01:48:58.101Z,1006.42
2023-02-03T01:49:08.373Z,1006.43
2023-02-03T01:49:18.648Z,1006.43
2023-02-03T01:49:28.915Z,1006.42
2023-02-03T01:49:39.183Z,1006.43
2023-02-03T01:49:49.537Z,1006.41
2023-02-03T01:49:59.796Z,1006.44
2023-02-03T01:50:10.071Z,1006.44
2023-02-03T01:50:20.321Z,1006.42
2023-02-03T01:50:30.591Z,1006.47
2023-02-03T01:50:40.862Z,1006.46
2023-02-03T01:50:51.148Z,1006.44
2023-02-03T01:51:01.435Z,1006.47
2023-02-03T01:51:11.706Z,1006.46
2023-02-03T01:51:21.979Z,1006.47
2023-02-03T01:51:32.251Z,1006.49
2023-02-03T01:51:42.511Z,1006.47
2023-02-03T01:51:52.790Z,1006.46
2023-02-03T01:52:03.054Z,1006.48
2023-02-03T01:52:13.328Z,1006.49
2023-02-03T01:52:23.605Z,1006.49
2023-02-03T01:52:33.874Z,1006.49
2023-02-03T01:52:44.171Z,1006.50
2023-02-03T01:52:54.468Z,1006.49
2023-02-03T01:53:04.709Z,1006.48
2023-02-03T01:53:14.981Z,1006.48
2023-02-03T01:53:25.254Z,1006.50
2023-02-03T01:53:35.548Z,1006.51
2023-02-03T01:53:45.800Z,1006.51
2023-02-03T01:53:56.067Z,1006.52
2023-02-03T01:54:06.368Z,1006.50
2023-02-03T01:54:16.664Z,1006.53
2023-02-03T01:54:26.956Z,1006.54
2023-02-03T01:54:37.191Z,1006.51
2023-02-03T01:54:47.477Z,1006.50
2023-02-03T01:54:57.745Z,1006.51
2023-02-03T01:55:08.033Z,1006.49
2023-02-03T01:55:18.299Z,1006.51
2023-02-03T01:55:28.576Z,1006.49
2023-02-03T01:55:38.857Z,1006.47
2023-02-03T01:55:49.144Z,1006.47
2023-02-03T01:55:59.421Z,1006.47
2023-02-03T01:56:09.691Z,1006.45
2023-02-03T01:56:19.949Z,1006.46
2023-02-03T01:56:30.237Z,1006.45
2023-02-03T01:56:40.510Z,1006.46
2023-02-03T01:56:50.793Z,1006.46
2023-02-03T01:57:01.071Z,1006.45
2023-02-03T01:57:11.996Z,1006.48
2023-02-03T01:57:21.619Z,1006.46
2023-02-03T01:57:31.888Z,1006.42
2023-02-03T01:57:42.170Z,1006.47
2023-02-03T01:57:52.436Z,1006.44
2023-02-03T01:58:02.756Z,1006.44
2023-02-03T01:58:13.059Z,1006.44
2023-02-03T01:58:23.310Z,1006.46
2023-02-03T01:58:33.595Z,1006.38
2023-02-03T01:58:43.867Z,1006.37
2023-02-03T01:58:54.138Z,1006.39
2023-02-03T01:59:04.420Z,1006.40
2023-02-03T01:59:14.688Z,1006.42
2023-02-03T01:59:24.960Z,1006.41
2023-02-03T01:59:35.227Z,1006.39
2023-02-03T01:59:45.514Z,1006.42
2023-02-03T01:59:55.791Z,1006.38
2023-02-03T02:00:06.062Z,1006.40
2023-02-03T02:00:16.347Z,1006.38
2023-02-03T02:00:26.923Z,1006.43
2023-02-03T02:00:36.915Z,1006.38
2023-02-03T02:00:47.188Z,1006.41
2023-02-03T02:00:57.601Z,1006.41
2023-02-03T02:01:07.934Z,1006.44
2023-02-03T02:01:19.712Z,1006.44
2023-02-03T02:01:28.641Z,1006.42
2023-02-03T02:01:38.893Z,1006.44
2023-02-03T02:01:49.246Z,1006.44
2023-02-03T02:01:59.477Z,1006.45
2023-02-03T02:02:09.782Z,1006.47
2023-02-03T02:02:20.080Z,1006.47
2023-02-03T02:02:30.407Z,1006.51
2023-02-03T02:02:40.878Z,1006.49
2023-02-03T02:02:51.098Z,1006.48
2023-02-03T02:03:01.227Z,1006.52
2023-02-03T02:03:11.502Z,1006.51
2023-02-03T02:03:21.781Z,1006.51
2023-02-03T02:03:32.072Z,1006.51
2023-02-03T02:03:42.342Z,1006.51
2023-02-03T02:03:52.626Z,1006.53
2023-02-03T02:04:02.891Z,1006.52
2023-02-03T02:04:13.150Z,1006.52
2023-02-03T02:04:23.428Z,1006.52